createdAt,value
2017-09-20T00:07:38.964Z,10.57
2017-09-20T00:10:05.709Z,8.53
2017-09-20T00:15:27.661Z,9.33
2017-09-20T00:17:54.654Z,7.60
2017-09-20T00:20:24.317Z,8.00
2017-09-20T00:22:52.415Z,8.60
2017-09-20T00:25:19.830Z,8.10
2017-09-20T00:27:46.404Z,7.70
2017-09-20T00:30:12.899Z,9.20
2017-09-20T00:32:39.450Z,9.33
2017-09-20T00:38:01.725Z,9.90
2017-09-20T00:40:29.279Z,7.80
2017-09-20T00:47:23.840Z,10.00
2017-09-20T00:49:50.803Z,9.53
2017-09-20T00:52:17.240Z,8.77
2017-09-20T00:54:43.936Z,9.50
2017-09-20T00:57:11.895Z,9.07
2017-09-20T00:59:38.412Z,9.57
2017-09-20T01:02:06.087Z,9.97
2017-09-20T01:04:33.470Z,11.23
2017-09-20T01:07:01.099Z,9.07
2017-09-20T01:09:29.929Z,11.00
2017-09-20T01:11:56.636Z,11.57
2017-09-20T01:14:34.756Z,11.40
2017-09-20T01:17:04.222Z,9.67
2017-09-20T01:19:30.756Z,9.80
2017-09-20T01:25:18.447Z,14.23
2017-09-20T01:27:44.985Z,11.17
2017-09-20T01:30:12.594Z,11.80
2017-09-20T01:35:33.763Z,9.93
2017-09-20T01:38:01.339Z,11.47
2017-09-20T01:43:01.337Z,13.23
2017-09-20T01:45:28.885Z,13.43
2017-09-20T01:47:55.453Z,10.83
2017-09-20T01:50:23.007Z,12.63
2017-09-20T01:52:49.900Z,13.20
2017-09-20T01:55:21.716Z,14.03
2017-09-20T01:57:55.148Z,11.20
2017-09-20T02:00:22.735Z,12.07
2017-09-20T02:02:49.827Z,10.97
2017-09-20T02:05:16.564Z,11.40
2017-09-20T02:07:43.084Z,14.57
2017-09-20T02:10:09.864Z,11.53
2017-09-20T02:12:36.471Z,12.80
2017-09-20T02:15:03.003Z,11.40
2017-09-20T02:17:30.917Z,11.73
2017-09-20T02:19:57.603Z,13.93
2017-09-20T02:22:24.252Z,11.97
2017-09-20T02:24:51.574Z,12.63
2017-09-20T02:27:18.096Z,13.43
2017-09-20T02:29:45.533Z,11.60
2017-09-20T02:32:19.520Z,12.00
2017-09-20T02:34:46.504Z,14.60
2017-09-20T02:37:13.247Z,16.93
2017-09-20T02:39:39.620Z,10.50
2017-09-20T02:45:03.139Z,14.60
2017-09-20T02:47:29.856Z,10.23
2017-09-20T02:49:56.612Z,14.47
2017-09-20T02:52:23.021Z,15.40
2017-09-20T02:54:50.548Z,11.47
2017-09-20T02:57:17.139Z,14.40
2017-09-20T02:59:44.552Z,15.13
2017-09-20T03:14:27.816Z,14.37
2017-09-20T03:16:55.610Z,13.53
2017-09-20T03:19:22.017Z,13.70
2017-09-20T03:21:48.693Z,12.57
2017-09-20T03:24:15.626Z,11.23
2017-09-20T03:26:42.369Z,13.83
2017-09-20T03:29:09.160Z,12.97
2017-09-20T03:31:38.628Z,12.53
2017-09-20T03:34:05.269Z,12.30
2017-09-20T03:36:31.859Z,13.90
2017-09-20T03:38:58.473Z,12.80
2017-09-20T03:41:28.220Z,11.67
2017-09-20T03:43:54.764Z,16.77
2017-09-20T03:46:22.303Z,15.10
2017-09-20T03:48:49.939Z,11.50
2017-09-20T03:51:16.512Z,15.37
2017-09-20T03:53:43.181Z,15.10
2017-09-20T03:56:09.932Z,13.23
2017-09-20T03:58:36.479Z,10.37
2017-09-20T04:01:03.031Z,13.10
2017-09-20T04:03:30.065Z,15.00
2017-09-20T04:05:58.536Z,13.37
2017-09-20T04:08:25.968Z,12.90
2017-09-20T04:52:25.196Z,13.00
2017-09-20T05:06:26.044Z,15.40
2017-09-20T05:08:52.686Z,17.70
2017-09-20T05:11:19.303Z,18.63
2017-09-20T05:13:46.878Z,15.27
2017-09-20T05:16:13.381Z,14.53
2017-09-20T06:22:51.108Z,21.20
2017-09-20T06:25:17.551Z,14.30
2017-09-20T06:27:45.097Z,13.47
2017-09-20T06:30:11.755Z,13.80
2017-09-20T06:32:38.586Z,14.17
2017-09-20T06:35:05.416Z,17.03
2017-09-20T06:37:33.011Z,15.40
2017-09-20T06:39:59.640Z,14.87
2017-09-20T06:42:26.355Z,14.40
2017-09-20T06:44:52.916Z,14.90
2017-09-20T07:00:44.425Z,15.70
2017-09-20T07:05:53.465Z,13.57
2017-09-20T07:08:21.780Z,13.47
2017-09-20T07:10:48.303Z,18.13
2017-09-20T07:13:15.832Z,14.50
2017-09-20T07:15:42.232Z,13.17
2017-09-20T07:18:11.847Z,12.10
2017-09-20T07:20:38.440Z,15.40
2017-09-20T07:23:07.251Z,12.73
2017-09-20T07:25:36.463Z,12.20
2017-09-20T07:30:57.888Z,13.03
2017-09-20T07:33:25.608Z,11.80
2017-09-20T07:35:52.395Z,11.67
2017-09-20T07:38:18.960Z,12.30
2017-09-20T07:40:45.378Z,10.47
2017-09-20T07:46:06.512Z,11.77
2017-09-20T07:48:33.159Z,11.83
2017-09-20T07:50:59.835Z,10.50
2017-09-20T07:53:27.345Z,11.40
2017-09-20T07:55:53.984Z,10.97
2017-09-20T07:58:20.633Z,9.27
2017-09-20T08:00:47.220Z,10.43
2017-09-20T08:03:15.009Z,9.97
2017-09-20T08:05:41.667Z,9.30
2017-09-20T08:11:03.499Z,8.23
2017-09-20T08:13:30.143Z,8.20
2017-09-20T08:15:56.874Z,8.17
2017-09-20T08:18:23.533Z,8.43
2017-09-20T08:20:50.168Z,7.90
2017-09-20T08:23:16.930Z,8.40
2017-09-20T08:25:43.599Z,7.20
2017-09-20T08:28:11.009Z,7.67
2017-09-20T08:30:37.752Z,9.03
2017-09-20T08:33:04.510Z,8.13
2017-09-20T08:35:30.932Z,7.87
2017-09-20T08:37:57.511Z,9.67
2017-09-20T08:40:27.856Z,9.47
2017-09-20T08:42:55.196Z,9.13
2017-09-20T08:45:22.818Z,9.93
2017-09-20T08:47:49.404Z,8.67
2017-09-20T08:50:16.349Z,9.50
2017-09-20T08:52:42.948Z,8.60
2017-09-20T08:55:09.321Z,8.23
2017-09-20T08:57:36.091Z,8.97
2017-09-20T09:00:02.747Z,11.73
2017-09-20T09:02:30.148Z,8.17
2017-09-20T09:04:56.939Z,8.83
2017-09-20T09:07:23.563Z,8.80
2017-09-20T09:09:50.153Z,8.07
2017-09-20T09:12:17.588Z,8.20
2017-09-20T09:14:44.332Z,8.80
2017-09-20T09:17:10.935Z,8.83
2017-09-20T09:19:38.456Z,8.93
2017-09-20T09:25:44.628Z,8.50
2017-09-20T09:28:12.091Z,8.30
2017-09-20T09:30:41.647Z,9.47
2017-09-20T09:33:08.328Z,7.60
2017-09-20T09:35:36.264Z,7.80
2017-09-20T09:38:02.941Z,8.10
2017-09-20T09:40:30.331Z,6.23
2017-09-20T09:42:56.958Z,7.10
2017-09-20T09:48:20.095Z,7.30
2017-09-20T09:50:50.802Z,9.00
2017-09-20T09:53:17.423Z,6.70
2017-09-20T09:55:44.149Z,7.33
2017-09-20T09:58:11.028Z,6.60
2017-09-20T10:00:37.817Z,6.93
2017-09-20T10:03:04.507Z,6.60
2017-09-20T10:05:31.084Z,6.63
2017-09-20T10:10:59.868Z,7.37
2017-09-20T10:13:29.524Z,7.53
2017-09-20T10:15:56.243Z,6.50
2017-09-20T10:18:22.653Z,7.40
2017-09-20T10:20:50.260Z,5.93
2017-09-20T10:23:16.652Z,6.93
2017-09-20T10:25:45.184Z,5.90
2017-09-20T10:28:13.884Z,6.13
2017-09-20T10:30:40.693Z,5.10
2017-09-20T10:33:07.787Z,6.07
2017-09-20T10:35:34.283Z,6.23
2017-09-20T10:38:00.968Z,5.77
2017-09-20T10:40:29.860Z,5.30
2017-09-20T10:42:57.877Z,6.03
2017-09-20T10:45:27.402Z,5.13
2017-09-20T10:47:54.077Z,6.07
2017-09-20T10:50:22.700Z,5.97
2017-09-20T10:52:50.203Z,4.73
2017-09-20T10:55:16.954Z,5.30
2017-09-20T10:57:44.289Z,4.37
2017-09-20T11:00:11.083Z,5.07
2017-09-20T11:02:39.828Z,4.70
2017-09-20T11:05:06.637Z,4.37
2017-09-20T11:07:33.404Z,4.80
2017-09-20T11:09:59.970Z,4.80
2017-09-20T11:12:26.679Z,4.63
2017-09-20T11:14:53.315Z,4.40
2017-09-20T11:17:19.941Z,5.07
2017-09-20T11:19:46.690Z,4.70
2017-09-20T11:22:13.279Z,4.73
2017-09-20T11:24:42.017Z,6.53
2017-09-20T11:27:09.441Z,6.23
2017-09-20T11:29:36.847Z,5.80
2017-09-20T11:32:04.307Z,6.40
2017-09-20T11:34:31.766Z,10.50
2017-09-20T11:36:59.239Z,5.37
2017-09-20T11:39:26.619Z,6.10
2017-09-20T11:41:54.112Z,6.00
2017-09-20T11:44:20.622Z,6.20
2017-09-20T11:46:47.381Z,5.77
2017-09-20T11:49:14.129Z,5.10
2017-09-20T11:51:41.156Z,5.63
2017-09-20T11:54:07.700Z,5.17
2017-09-20T11:56:34.285Z,7.10
2017-09-20T11:59:02.032Z,4.63
2017-09-20T12:01:32.476Z,3.97
2017-09-20T12:03:59.976Z,5.37
2017-09-20T12:06:26.685Z,4.00
2017-09-20T12:08:54.017Z,3.77
2017-09-20T12:11:20.518Z,3.50
2017-09-20T12:13:48.345Z,3.37
2017-09-20T12:16:15.095Z,3.40
2017-09-20T12:18:51.996Z,3.53
2017-09-20T12:21:18.668Z,3.57
2017-09-20T12:23:45.350Z,3.10
2017-09-20T12:26:12.078Z,3.40
2017-09-20T12:28:39.173Z,3.30
2017-09-20T12:31:05.925Z,4.20
2017-09-20T12:33:32.731Z,4.67
2017-09-20T12:35:59.531Z,4.10
2017-09-20T12:38:26.937Z,3.67
2017-09-20T12:40:53.710Z,3.20
2017-09-20T12:47:47.799Z,2.80
2017-09-20T12:50:14.446Z,3.37
2017-09-20T12:52:41.180Z,4.00
2017-09-20T12:55:07.712Z,4.40
2017-09-20T12:57:34.303Z,3.13
2017-09-20T13:00:01.679Z,2.87
2017-09-20T13:02:28.311Z,3.63
2017-09-20T13:04:55.718Z,3.90
2017-09-20T13:07:22.268Z,3.93
2017-09-20T13:09:52.850Z,4.20
2017-09-20T13:12:19.264Z,4.33
2017-09-20T13:18:00.966Z,4.23
2017-09-20T13:20:27.573Z,4.30
2017-09-20T13:22:54.886Z,3.33
2017-09-20T13:25:21.440Z,3.70
2017-09-20T13:27:50.515Z,3.30
2017-09-20T13:30:17.980Z,3.87
2017-09-20T13:32:44.371Z,3.90
2017-09-20T13:35:11.600Z,3.60
2017-09-20T13:37:39.134Z,3.83
2017-09-20T13:40:06.544Z,3.37
2017-09-20T13:42:33.351Z,3.23
2017-09-20T13:47:55.694Z,2.80
2017-09-20T13:50:22.704Z,2.60
2017-09-20T13:52:49.389Z,3.40
2017-09-20T13:55:16.335Z,2.97
2017-09-20T13:57:43.880Z,3.23
2017-09-20T14:00:28.128Z,2.87
2017-09-20T14:02:56.706Z,2.10
2017-09-20T14:05:23.338Z,2.70
2017-09-20T14:07:50.800Z,3.93
2017-09-20T14:10:17.646Z,2.53
2017-09-20T14:12:44.492Z,3.20
2017-09-20T14:15:11.312Z,3.67
2017-09-20T14:17:38.095Z,3.90
2017-09-20T14:20:05.697Z,3.67
2017-09-20T14:22:32.376Z,3.90
2017-09-20T14:24:58.871Z,4.23
2017-09-20T14:27:25.440Z,3.93
2017-09-20T14:29:52.042Z,4.40
2017-09-20T14:32:19.050Z,4.53
2017-09-20T14:34:45.724Z,4.50
2017-09-20T14:37:12.704Z,5.00
2017-09-20T14:39:40.225Z,4.53
2017-09-20T14:42:06.777Z,4.80
2017-09-20T14:44:33.539Z,5.73
2017-09-20T14:47:00.339Z,5.40
2017-09-20T14:49:27.013Z,5.97
2017-09-20T14:51:53.588Z,4.90
2017-09-20T14:54:21.030Z,4.10
2017-09-20T14:56:48.564Z,5.50
2017-09-20T14:59:16.435Z,5.30
2017-09-20T15:01:43.096Z,5.07
2017-09-20T15:04:09.672Z,6.00
2017-09-20T15:06:36.067Z,5.50
2017-09-20T15:09:03.040Z,6.53
2017-09-20T15:11:29.503Z,6.53
2017-09-20T15:13:56.798Z,6.30
2017-09-20T15:16:38.772Z,5.53
2017-09-20T15:31:27.629Z,5.80
2017-09-20T15:33:57.150Z,5.50
2017-09-20T15:36:23.858Z,6.60
2017-09-20T15:38:50.604Z,6.00
2017-09-20T15:41:17.216Z,7.73
2017-09-20T15:43:44.625Z,5.47
2017-09-20T15:46:22.296Z,5.60
2017-09-20T15:48:48.999Z,6.40
2017-09-20T15:53:53.477Z,6.27
2017-09-20T15:56:20.353Z,6.43
2017-09-20T15:58:47.731Z,9.00
2017-09-20T16:01:14.377Z,7.90
2017-09-20T16:03:41.169Z,7.83
2017-09-20T16:06:08.660Z,7.60
2017-09-20T16:08:35.163Z,6.90
2017-09-20T16:11:02.601Z,7.47
2017-09-20T16:13:29.121Z,8.03
2017-09-20T16:15:55.637Z,7.80
2017-09-20T16:18:22.892Z,7.23
2017-09-20T16:20:49.332Z,7.53
2017-09-20T16:23:15.877Z,7.87
2017-09-20T16:25:42.452Z,7.30
2017-09-20T16:28:12.016Z,6.40
2017-09-20T16:30:48.577Z,7.50
2017-09-20T16:33:17.411Z,6.90
2017-09-20T16:35:44.820Z,7.73
2017-09-20T16:38:11.473Z,6.20
2017-09-20T16:40:37.840Z,6.63
2017-09-20T16:43:05.021Z,6.03
2017-09-20T16:45:32.045Z,7.00
2017-09-20T17:06:25.100Z,6.93
2017-09-20T17:08:52.544Z,7.40
2017-09-20T17:11:19.276Z,7.93
2017-09-20T17:13:45.663Z,5.80
2017-09-20T17:16:12.339Z,5.37
2017-09-20T17:18:39.908Z,5.10
2017-09-20T17:21:09.618Z,6.00
2017-09-20T17:23:36.935Z,5.87
2017-09-20T17:26:05.621Z,5.43
2017-09-20T17:28:32.272Z,5.90
2017-09-20T17:31:03.271Z,4.70
2017-09-20T17:33:32.101Z,9.00
2017-09-20T17:38:53.004Z,5.90
2017-09-20T17:41:19.431Z,5.97
2017-09-20T17:43:46.193Z,6.20
2017-09-20T17:46:12.977Z,5.73
2017-09-20T17:48:41.232Z,9.67
2017-09-20T17:51:08.236Z,5.83
2017-09-20T17:53:35.327Z,6.60
2017-09-20T17:56:02.772Z,6.70
2017-09-20T17:58:29.431Z,6.30
2017-09-20T18:00:59.145Z,5.10
2017-09-20T18:03:25.876Z,6.20
2017-09-20T18:05:53.476Z,8.33
2017-09-20T18:10:53.119Z,6.90
2017-09-20T18:13:22.193Z,5.97
2017-09-20T18:15:49.744Z,7.20
2017-09-20T18:18:16.352Z,6.43
2017-09-20T18:20:44.483Z,6.90
2017-09-20T18:23:10.901Z,6.93
2017-09-20T18:25:37.823Z,7.23
2017-09-20T18:28:05.244Z,5.87
2017-09-20T18:30:37.034Z,5.87
2017-09-20T19:10:27.455Z,5.10
2017-09-20T19:12:54.215Z,6.53
2017-09-20T19:15:20.703Z,8.10
2017-09-20T19:17:47.292Z,6.20
2017-09-20T19:20:15.579Z,7.87
2017-09-20T19:22:42.243Z,5.67
2017-09-20T19:25:08.676Z,5.60
2017-09-20T19:27:35.343Z,11.93
2017-09-20T19:32:56.621Z,14.40
2017-09-20T19:35:24.016Z,11.10
2017-09-20T19:37:50.628Z,9.57
2017-09-20T19:40:17.060Z,8.13
2017-09-20T19:42:45.509Z,9.73
2017-09-20T19:45:13.019Z,7.60
2017-09-20T19:47:39.489Z,6.60
2017-09-20T19:50:06.969Z,6.13
2017-09-20T19:55:28.331Z,6.67
2017-09-20T19:57:56.031Z,7.17
2017-09-20T20:00:22.572Z,6.17
2017-09-20T20:18:22.717Z,10.47
2017-09-20T20:20:50.245Z,16.63
2017-09-20T20:23:17.119Z,29.90
2017-09-20T20:25:44.779Z,13.90
2017-09-20T20:28:12.544Z,17.50
2017-09-20T20:30:39.132Z,20.17
2017-09-20T20:33:05.677Z,16.53
2017-09-20T20:35:32.353Z,20.47
2017-09-20T20:37:59.044Z,18.00
2017-09-20T20:40:27.066Z,16.40
2017-09-20T20:42:53.905Z,16.47
2017-09-20T20:49:48.039Z,18.00
2017-09-20T20:52:23.832Z,16.37
2017-09-20T20:54:51.017Z,15.40
2017-09-20T20:57:17.794Z,18.17
2017-09-20T20:59:44.601Z,13.77
2017-09-20T21:04:45.350Z,13.03
2017-09-20T21:07:12.975Z,11.97
2017-09-20T21:09:39.680Z,12.40
2017-09-20T21:15:00.519Z,10.20
2017-09-20T21:17:27.268Z,12.37
2017-09-20T21:19:53.883Z,11.47
2017-09-20T21:22:20.627Z,11.37
2017-09-20T21:24:48.112Z,11.27
2017-09-20T21:27:17.603Z,10.13
2017-09-20T21:29:44.262Z,13.77
2017-09-20T21:32:13.722Z,12.10
2017-09-20T21:34:41.215Z,15.33
2017-09-20T21:37:08.042Z,13.90
2017-09-20T21:51:54.796Z,11.30
2017-09-20T21:54:22.284Z,13.80
2017-09-20T21:56:52.839Z,11.67
2017-09-20T21:59:19.866Z,14.00
2017-09-20T22:01:46.383Z,17.33
2017-09-20T22:04:12.936Z,18.47
2017-09-20T22:06:39.412Z,13.77
2017-09-20T22:09:05.951Z,16.40
2017-09-20T22:11:33.452Z,13.13
2017-09-20T22:14:00.227Z,12.33
2017-09-20T22:16:45.469Z,14.40
2017-09-20T22:31:06.144Z,14.10
2017-09-20T22:33:34.606Z,16.50
2017-09-20T22:36:02.100Z,13.63
2017-09-20T22:53:55.610Z,11.03
2017-09-20T22:56:23.472Z,11.57
2017-09-20T22:58:50.244Z,11.27
2017-09-20T23:01:17.769Z,12.50
2017-09-20T23:03:44.664Z,10.70
2017-09-20T23:06:21.579Z,9.97
2017-09-20T23:08:48.343Z,10.57
2017-09-20T23:11:15.184Z,9.27
2017-09-20T23:13:41.736Z,11.00
2017-09-20T23:16:11.948Z,12.00
2017-09-20T23:18:40.935Z,14.60
2017-09-20T23:21:09.532Z,12.63
2017-09-20T23:23:38.177Z,14.80
2017-09-20T23:26:04.867Z,15.37
2017-09-20T23:28:32.304Z,17.10
2017-09-20T23:30:58.889Z,12.47
2017-09-20T23:33:25.548Z,14.60
2017-09-20T23:35:52.327Z,25.03
2017-09-20T23:38:19.796Z,16.67
2017-09-20T23:40:47.116Z,14.90
2017-09-20T23:43:13.750Z,16.90
2017-09-20T23:45:40.627Z,17.07
2017-09-20T23:48:07.373Z,17.00
2017-09-20T23:50:33.863Z,19.73
2017-09-20T23:53:01.372Z,14.40
2017-09-20T23:58:23.212Z,17.87
